Time;durP1;ratioP1;P1;durP2;ratioP2;P2;SDS_P1;SDS_P2;PMS_P1;PMS_P2;Temp;Humidity;BMP_temperature;BMP_pressure;BME280_temperature;BME280_humidity;BME280_pressure;Samples;Min_cycle;Max_cycle;Signal;HPM_P1;HPM_P2
2021/06/14 00:00:21;;;;;;;12.25;5.75;;;14.30;96.00;;;;;;5092113;28;22943;-65
2021/06/14 00:02:47;;;;;;;10.40;5.93;;;14.30;96.00;;;;;;5092631;28;20057;-65
2021/06/14 00:05:36;;;;;;;12.32;6.28;;;14.30;96.10;;;;;;5091040;28;20556;-65
2021/06/14 00:08:08;;;;;;;10.88;5.93;;;14.30;96.10;;;;;;5097634;28;20043;-65
2021/06/14 00:10:34;;;;;;;9.25;5.43;;;14.30;96.20;;;;;;5098985;28;20428;-65
2021/06/14 00:13:03;;;;;;;10.52;5.90;;;14.30;96.20;;;;;;5108220;28;20040;-65
2021/06/14 00:15:29;;;;;;;11.68;6.00;;;14.30;96.30;;;;;;5106959;28;20063;-65
2021/06/14 00:17:56;;;;;;;11.50;6.35;;;14.30;96.30;;;;;;5096195;28;20047;-65
2021/06/14 00:20:22;;;;;;;10.80;6.25;;;14.20;96.20;;;;;;5094352;28;20123;-65
2021/06/14 00:22:48;;;;;;;11.90;6.72;;;14.20;96.20;;;;;;5095989;28;20036;-65
2021/06/14 00:25:19;;;;;;;9.18;6.32;;;14.20;96.30;;;;;;5101031;28;20042;-65
2021/06/14 00:27:45;;;;;;;10.65;5.95;;;14.20;96.30;;;;;;5094947;28;20053;-65
2021/06/14 00:30:11;;;;;;;14.50;7.18;;;14.20;96.20;;;;;;5102112;28;20480;-65
2021/06/14 00:32:37;;;;;;;14.93;6.65;;;14.20;96.20;;;;;;5089690;28;20349;-65
2021/06/14 00:35:05;;;;;;;13.00;6.95;;;14.20;96.30;;;;;;5096672;28;20059;-65
2021/06/14 00:37:31;;;;;;;9.65;6.28;;;14.10;96.40;;;;;;5098648;28;20054;-65
2021/06/14 00:39:56;;;;;;;11.18;6.78;;;14.10;96.40;;;;;;5105457;28;20406;-65
2021/06/14 00:42:22;;;;;;;10.52;6.65;;;14.10;96.40;;;;;;5091587;28;20131;-65
2021/06/14 00:44:48;;;;;;;10.98;6.65;;;14.10;96.60;;;;;;5093928;27;20031;-65
2021/06/14 00:47:14;;;;;;;11.95;6.47;;;14.00;96.60;;;;;;5091114;28;20031;-65
2021/06/14 00:49:39;;;;;;;12.50;6.60;;;14.00;96.80;;;;;;5099177;28;20077;-65
2021/06/14 00:52:06;;;;;;;10.75;6.55;;;13.90;97.00;;;;;;5097797;28;20111;-65
2021/06/14 00:54:32;;;;;;;13.48;6.93;;;13.90;97.00;;;;;;5094296;28;20089;-65
2021/06/14 00:56:57;;;;;;;12.93;6.30;;;13.90;97.00;;;;;;5100936;28;20358;-65
2021/06/14 00:59:24;;;;;;;13.70;6.82;;;13.80;97.00;;;;;;5096469;28;20028;-65
2021/06/14 01:01:51;;;;;;;9.23;6.70;;;13.80;97.20;;;;;;5098891;28;20302;-65
2021/06/14 01:04:17;;;;;;;13.65;7.00;;;13.80;97.20;;;;;;5090937;28;20466;-65
2021/06/14 01:06:46;;;;;;;9.90;6.32;;;13.70;97.20;;;;;;5098347;28;20082;-65
2021/06/14 01:09:13;;;;;;;11.10;7.43;;;13.70;97.20;;;;;;5093304;28;20542;-65
2021/06/14 01:11:53;;;;;;;12.00;7.35;;;13.70;97.50;;;;;;5097986;28;20051;-65
2021/06/14 01:14:37;;;;;;;9.77;6.63;;;13.70;97.50;;;;;;5095217;28;20035;-65
2021/06/14 01:17:19;;;;;;;9.25;6.55;;;13.60;97.40;;;;;;5097310;28;20047;-65
2021/06/14 01:20:09;;;;;;;9.95;6.78;;;13.60;97.50;;;;;;5094059;28;20059;-65
2021/06/14 01:23:07;;;;;;;12.48;7.53;;;13.60;97.70;;;;;;5096956;28;20043;-65
2021/06/14 01:25:41;;;;;;;12.25;7.63;;;13.60;97.90;;;;;;5091688;28;20044;-65
2021/06/14 01:28:07;;;;;;;;;;;13.50;97.90;;;;;;5099513;28;20059;-65
2021/06/14 01:30:36;;;;;;;9.35;6.35;;;13.40;98.30;;;;;;5092909;28;19930;-65
2021/06/14 01:33:05;;;;;;;12.43;7.60;;;13.40;98.00;;;;;;5093134;28;20043;-65
2021/06/14 01:35:48;;;;;;;10.98;6.95;;;13.40;98.00;;;;;;5089749;28;20044;-65
2021/06/14 01:38:17;;;;;;;11.45;7.15;;;13.40;98.00;;;;;;5100083;28;20072;-65
2021/06/14 01:40:46;;;;;;;14.50;7.10;;;13.30;98.00;;;;;;5094881;28;20042;-65
2021/06/14 01:43:15;;;;;;;10.02;6.57;;;13.40;98.00;;;;;;5100577;28;20032;-65
2021/06/14 01:45:48;;;;;;;10.77;6.80;;;13.40;97.90;;;;;;5090710;28;20050;-65
2021/06/14 01:48:16;;;;;;;11.15;8.20;;;13.40;97.90;;;;;;5094598;28;20110;-65
2021/06/14 01:50:42;;;;;;;11.90;7.47;;;13.40;97.90;;;;;;5081445;28;20052;-65
2021/06/14 01:53:08;;;;;;;11.73;7.03;;;13.30;98.10;;;;;;5098869;28;20442;-65
2021/06/14 01:55:35;;;;;;;10.82;6.95;;;13.30;98.30;;;;;;5089379;28;20080;-65
2021/06/14 01:58:02;;;;;;;12.48;6.68;;;13.30;97.90;;;;;;5098382;28;20063;-65
2021/06/14 02:00:28;;;;;;;13.25;7.70;;;13.30;97.80;;;;;;5094653;28;20048;-65
2021/06/14 02:02:55;;;;;;;10.95;7.00;;;13.30;97.80;;;;;;5101689;28;20031;-65
2021/06/14 02:05:25;;;;;;;14.48;6.82;;;13.30;97.90;;;;;;5089827;28;20097;-65
2021/06/14 02:07:52;;;;;;;10.25;6.93;;;13.30;97.80;;;;;;5103945;28;20093;-65
2021/06/14 02:10:21;;;;;;;9.82;7.13;;;13.30;97.70;;;;;;5096824;28;22221;-65
2021/06/14 02:12:47;;;;;;;11.32;7.57;;;13.30;97.60;;;;;;5102281;28;20042;-65
2021/06/14 02:15:14;;;;;;;11.32;7.28;;;13.30;97.60;;;;;;5093638;28;20024;-65
2021/06/14 02:17:41;;;;;;;13.07;7.63;;;13.30;97.60;;;;;;5099800;28;20063;-65
2021/06/14 02:20:08;;;;;;;11.95;7.00;;;13.30;97.60;;;;;;5096668;28;20641;-65
2021/06/14 02:22:35;;;;;;;11.02;7.22;;;13.30;97.50;;;;;;5093400;28;20036;-65
2021/06/14 02:25:06;;;;;;;13.93;7.95;;;13.30;97.60;;;;;;5106431;28;20535;-65
2021/06/14 02:27:32;;;;;;;11.95;7.10;;;13.20;97.70;;;;;;5094305;28;20040;-65
2021/06/14 02:29:58;;;;;;;11.05;7.78;;;13.20;97.70;;;;;;5094141;28;20444;-65
2021/06/14 02:32:23;;;;;;;13.05;7.50;;;13.20;97.80;;;;;;5087406;28;20543;-65
2021/06/14 02:34:49;;;;;;;12.65;7.53;;;13.10;97.70;;;;;;5101147;28;20036;-65
2021/06/14 02:37:17;;;;;;;10.18;7.60;;;13.20;97.70;;;;;;5073814;28;20491;-65
2021/06/14 02:39:46;;;;;;;10.65;7.63;;;13.10;97.80;;;;;;5094741;28;20461;-65
2021/06/14 02:42:12;;;;;;;11.07;7.35;;;13.10;97.70;;;;;;5103345;28;20046;-65
2021/06/14 02:44:40;;;;;;;11.93;7.45;;;13.10;97.60;;;;;;5101670;28;20036;-65
2021/06/14 02:47:10;;;;;;;13.75;7.63;;;13.10;97.60;;;;;;5093881;28;20509;-65
2021/06/14 02:49:37;;;;;;;13.10;7.18;;;13.10;97.60;;;;;;5108754;28;20035;-65
2021/06/14 02:52:06;;;;;;;13.02;7.07;;;13.10;97.60;;;;;;5097568;28;20081;-65
2021/06/14 02:54:41;;;;;;;11.75;7.20;;;13.10;97.50;;;;;;5105786;28;20040;-65
2021/06/14 02:57:13;;;;;;;13.20;7.40;;;13.10;97.50;;;;;;5099436;28;21554;-65
2021/06/14 02:59:45;;;;;;;12.07;6.88;;;13.10;97.40;;;;;;5096190;28;20071;-65
2021/06/14 03:02:11;;;;;;;13.48;7.20;;;13.10;97.30;;;;;;5098145;28;20031;-65
2021/06/14 03:04:37;;;;;;;10.07;7.18;;;13.10;97.30;;;;;;5099283;28;20388;-65
2021/06/14 03:07:04;;;;;;;11.02;7.22;;;13.10;97.30;;;;;;5094273;28;20071;-65
2021/06/14 03:09:30;;;;;;;11.30;7.68;;;13.10;97.30;;;;;;5097577;28;20040;-65
2021/06/14 03:11:58;;;;;;;11.18;7.50;;;13.10;97.20;;;;;;5097752;28;20116;-65
2021/06/14 03:14:25;;;;;;;13.52;8.30;;;13.10;97.20;;;;;;5095835;28;20037;-65
2021/06/14 03:16:51;;;;;;;14.88;8.13;;;13.10;97.20;;;;;;5096187;28;20028;-65
2021/06/14 03:19:22;;;;;;;13.18;8.35;;;13.10;97.20;;;;;;5096285;28;20046;-65
2021/06/14 03:21:48;;;;;;;14.63;7.55;;;13.10;97.30;;;;;;5101994;28;20490;-65
2021/06/14 03:24:15;;;;;;;11.65;7.93;;;13.00;97.30;;;;;;5098175;28;20036;-65
2021/06/14 03:26:43;;;;;;;14.82;7.82;;;13.00;97.30;;;;;;5104413;27;20040;-65
2021/06/14 03:29:14;;;;;;;14.65;8.18;;;13.00;97.30;;;;;;5096358;28;20036;-65
2021/06/14 03:31:41;;;;;;;13.05;8.27;;;13.10;97.20;;;;;;5093657;28;20603;-65
2021/06/14 03:34:07;;;;;;;15.30;9.20;;;13.00;97.10;;;;;;5096644;28;20044;-65
2021/06/14 03:36:33;;;;;;;15.75;9.13;;;13.00;97.10;;;;;;5097421;28;20042;-65
2021/06/14 03:39:00;;;;;;;10.40;7.97;;;13.00;97.30;;;;;;5094977;28;20074;-65
2021/06/14 03:41:27;;;;;;;14.90;8.98;;;13.00;97.30;;;;;;5102474;28;20126;-65
2021/06/14 03:43:53;;;;;;;13.43;8.88;;;13.00;97.20;;;;;;5098670;28;20460;-65
2021/06/14 03:46:20;;;;;;;12.65;9.25;;;13.00;97.30;;;;;;5101785;28;20057;-65
2021/06/14 03:48:46;;;;;;;11.13;8.57;;;13.00;97.30;;;;;;5096643;28;20032;-65
2021/06/14 03:51:12;;;;;;;16.38;9.73;;;13.00;97.40;;;;;;5094314;28;20120;-65
2021/06/14 03:53:39;;;;;;;14.70;10.68;;;13.00;97.70;;;;;;5096576;27;20047;-65
2021/06/14 03:56:10;;;;;;;14.82;9.88;;;13.00;97.60;;;;;;5093078;28;20081;-65
2021/06/14 03:58:37;;;;;;;17.08;9.77;;;13.10;97.80;;;;;;5093820;28;20040;-65
2021/06/14 04:01:03;;;;;;;14.18;9.90;;;13.00;98.10;;;;;;5093596;28;20529;-65
2021/06/14 04:03:29;;;;;;;14.50;9.68;;;13.10;97.70;;;;;;5097537;28;21317;-65
2021/06/14 04:05:58;;;;;;;19.70;10.32;;;13.10;97.80;;;;;;5091327;28;20123;-65
2021/06/14 04:08:24;;;;;;;18.05;11.52;;;13.20;97.90;;;;;;5106181;28;20220;-65
2021/06/14 04:10:50;;;;;;;16.27;10.23;;;13.20;98.00;;;;;;5096677;28;20571;-65
2021/06/14 04:13:16;;;;;;;15.20;11.75;;;13.30;98.10;;;;;;5102897;28;20043;-65
2021/06/14 04:15:42;;;;;;;17.27;10.98;;;13.30;98.20;;;;;;5091971;28;20043;-65
2021/06/14 04:18:07;;;;;;;16.23;11.23;;;13.40;98.30;;;;;;5095310;28;20040;-65
2021/06/14 04:20:33;;;;;;;14.95;10.68;;;13.50;98.20;;;;;;5090022;28;20036;-65
2021/06/14 04:22:59;;;;;;;16.50;11.10;;;13.50;98.10;;;;;;5095511;28;20453;-65
2021/06/14 04:25:25;;;;;;;15.70;11.80;;;13.60;98.00;;;;;;5097654;27;20047;-65
2021/06/14 04:27:51;;;;;;;17.30;12.60;;;13.70;98.10;;;;;;5102839;28;20048;-65
2021/06/14 04:30:17;;;;;;;16.25;11.38;;;13.80;98.30;;;;;;5094228;28;20035;-65
2021/06/14 04:32:44;;;;;;;18.02;11.88;;;13.90;98.20;;;;;;5091133;28;20056;-65
2021/06/14 04:35:11;;;;;;;18.35;10.60;;;14.00;98.00;;;;;;5099559;28;20035;-65
2021/06/14 04:37:37;;;;;;;17.00;11.02;;;14.10;97.60;;;;;;5090473;28;20214;-65
2021/06/14 04:40:06;;;;;;;17.42;11.25;;;14.20;97.40;;;;;;5099189;27;20079;-65
2021/06/14 04:42:32;;;;;;;16.38;11.38;;;14.30;97.30;;;;;;5094243;28;20127;-65
2021/06/14 04:44:58;;;;;;;14.40;10.77;;;14.40;97.10;;;;;;5094510;28;20131;-65
2021/06/14 04:47:24;;;;;;;14.32;10.70;;;14.50;97.00;;;;;;5089226;28;20101;-65
2021/06/14 04:49:50;;;;;;;14.10;9.93;;;14.60;96.80;;;;;;5096743;28;20047;-65
2021/06/14 04:52:16;;;;;;;15.02;10.63;;;14.70;96.60;;;;;;5090378;28;20578;-65
2021/06/14 04:54:42;;;;;;;13.75;10.48;;;14.90;96.50;;;;;;5099759;28;20097;-65
2021/06/14 04:57:09;;;;;;;17.30;9.77;;;15.10;96.30;;;;;;5095032;27;20040;-65
2021/06/14 04:59:35;;;;;;;15.55;9.65;;;15.30;95.90;;;;;;5101687;28;20031;-65
2021/06/14 05:02:01;;;;;;;10.48;8.77;;;15.80;95.30;;;;;;5089512;28;20074;-65
2021/06/14 05:04:27;;;;;;;14.30;9.50;;;16.40;94.00;;;;;;5095301;28;20575;-65
2021/06/14 05:06:53;;;;;;;12.07;8.65;;;16.80;93.80;;;;;;5088648;28;20052;-65
2021/06/14 05:09:19;;;;;;;14.73;9.27;;;17.20;92.20;;;;;;5096036;28;20047;-65
2021/06/14 05:11:47;;;;;;;15.77;8.57;;;17.20;91.70;;;;;;5093155;28;20111;-65
2021/06/14 05:14:15;;;;;;;12.70;9.02;;;17.10;91.70;;;;;;5090731;28;20040;-65
2021/06/14 05:16:41;;;;;;;15.27;9.32;;;17.00;92.00;;;;;;5097668;28;20051;-65
2021/06/14 05:19:06;;;;;;;12.63;8.70;;;17.00;91.30;;;;;;5095960;28;20039;-65
2021/06/14 05:21:32;;;;;;;11.90;8.40;;;17.00;91.90;;;;;;5092848;28;20048;-65
2021/06/14 05:23:58;;;;;;;12.02;8.98;;;17.00;92.20;;;;;;5089039;28;20059;-65
2021/06/14 05:26:24;;;;;;;15.00;8.43;;;17.00;92.50;;;;;;5097229;28;20039;-65
2021/06/14 05:28:49;;;;;;;13.18;8.13;;;17.10;91.90;;;;;;5095429;28;20047;-65
2021/06/14 05:31:15;;;;;;;10.65;8.40;;;17.10;91.50;;;;;;5096573;28;20050;-65
2021/06/14 05:33:41;;;;;;;9.38;7.63;;;17.20;91.70;;;;;;5092763;28;20484;-65
2021/06/14 05:36:07;;;;;;;9.77;7.88;;;17.30;91.30;;;;;;5102768;28;20352;-65
2021/06/14 05:38:33;;;;;;;10.70;7.75;;;17.40;91.30;;;;;;5090704;28;20127;-65
2021/06/14 05:40:59;;;;;;;13.18;7.00;;;17.50;91.30;;;;;;5103444;28;20547;-65
2021/06/14 05:43:25;;;;;;;12.98;8.65;;;17.60;90.50;;;;;;5089115;28;20144;-65
2021/06/14 05:45:51;;;;;;;11.05;7.55;;;17.70;90.90;;;;;;5100856;28;20598;-66
2021/06/14 05:48:17;;;;;;;12.75;7.22;;;17.70;90.80;;;;;;5095565;28;20111;-66
2021/06/14 05:50:43;;;;;;;10.23;6.82;;;17.80;90.20;;;;;;5092273;28;20043;-66
2021/06/14 05:53:08;;;;;;;10.30;6.97;;;17.90;89.50;;;;;;5099187;28;20483;-66
2021/06/14 05:55:35;;;;;;;10.82;6.78;;;18.00;90.10;;;;;;5098156;28;20032;-66
2021/06/14 05:58:01;;;;;;;8.38;6.80;;;18.10;89.60;;;;;;5098234;28;20040;-66
2021/06/14 06:00:26;;;;;;;18.23;12.05;;;18.20;89.90;;;;;;5091853;28;20051;-66
2021/06/14 06:02:52;;;;;;;12.80;7.30;;;18.30;89.10;;;;;;5103896;28;20088;-66
2021/06/14 06:05:18;;;;;;;9.93;6.00;;;18.40;88.60;;;;;;5094578;28;20411;-66
2021/06/14 06:07:44;;;;;;;10.35;5.40;;;18.50;87.50;;;;;;5095459;28;20040;-66
2021/06/14 06:10:11;;;;;;;12.23;6.25;;;18.60;86.00;;;;;;5086636;28;20134;-66
2021/06/14 06:12:38;;;;;;;9.52;5.05;;;18.70;86.90;;;;;;5096768;28;20097;-66
2021/06/14 06:15:09;;;;;;;9.88;6.32;;;18.80;83.70;;;;;;5097473;28;20032;-66
2021/06/14 06:17:35;;;;;;;8.95;5.10;;;18.90;84.00;;;;;;5105288;28;20475;-66
2021/06/14 06:20:02;;;;;;;7.68;5.20;;;19.00;82.90;;;;;;5104645;28;20294;-66
2021/06/14 06:22:28;;;;;;;9.00;6.10;;;19.10;83.30;;;;;;5100576;28;20036;-66
2021/06/14 06:24:54;;;;;;;9.02;5.07;;;19.30;82.60;;;;;;5093695;28;20047;-66
2021/06/14 06:27:20;;;;;;;11.80;5.80;;;19.30;80.90;;;;;;5106239;28;20036;-66
2021/06/14 06:29:45;;;;;;;7.03;5.15;;;19.50;83.00;;;;;;5102074;28;20031;-66
2021/06/14 06:32:11;;;;;;;8.73;5.05;;;19.50;79.00;;;;;;5094509;27;20147;-66
2021/06/14 06:34:38;;;;;;;12.30;5.88;;;19.60;80.20;;;;;;5101808;28;20055;-66
2021/06/14 06:37:04;;;;;;;10.10;5.20;;;19.70;78.50;;;;;;5092082;28;20047;-66
2021/06/14 06:39:29;;;;;;;7.50;5.10;;;19.80;76.20;;;;;;5104591;28;20040;-67
2021/06/14 06:41:58;;;;;;;10.20;5.75;;;19.80;74.10;;;;;;5091925;28;20051;-66
2021/06/14 06:44:24;;;;;;;9.75;4.68;;;20.00;76.60;;;;;;5102824;28;20040;-66
2021/06/14 06:46:50;;;;;;;9.93;5.07;;;20.10;75.00;;;;;;5094154;28;20471;-66
2021/06/14 06:49:16;;;;;;;8.13;4.82;;;20.20;74.80;;;;;;5104637;28;20444;-66
2021/06/14 06:51:41;;;;;;;6.65;4.13;;;20.30;73.70;;;;;;5092182;28;20036;-66
2021/06/14 06:54:11;;;;;;;6.97;4.47;;;20.30;72.70;;;;;;5098612;28;20031;-66
2021/06/14 06:56:48;;;;;;;8.85;5.13;;;20.50;72.10;;;;;;5091996;28;20044;-67
2021/06/14 06:59:14;;;;;;;7.88;4.57;;;20.60;70.40;;;;;;5103725;27;20047;-67
2021/06/14 07:01:40;;;;;;;9.38;4.90;;;20.60;71.80;;;;;;5093834;27;20051;-66
2021/06/14 07:04:07;;;;;;;9.35;5.35;;;20.80;72.60;;;;;;5102373;28;20284;-66
2021/06/14 07:06:34;;;;;;;11.70;4.50;;;20.90;70.20;;;;;;5103525;28;20465;-66
2021/06/14 07:09:00;;;;;;;7.85;4.97;;;21.00;70.00;;;;;;5102780;28;20024;-66
2021/06/14 07:11:27;;;;;;;10.80;5.22;;;21.10;68.20;;;;;;5090209;28;20073;-66
2021/06/14 07:13:53;;;;;;;7.45;4.55;;;21.20;70.40;;;;;;5096957;28;20499;-66
2021/06/14 07:16:20;;;;;;;8.00;4.18;;;21.30;69.10;;;;;;5097707;28;20055;-66
2021/06/14 07:18:46;;;;;;;7.10;4.07;;;21.40;67.50;;;;;;5095756;28;20130;-66
2021/06/14 07:21:12;;;;;;;10.55;4.97;;;21.50;68.10;;;;;;5105896;28;20031;-66
2021/06/14 07:23:38;;;;;;;11.40;5.30;;;21.60;66.40;;;;;;5096068;27;20127;-66
2021/06/14 07:26:05;;;;;;;9.60;4.80;;;21.70;63.50;;;;;;5098361;28;20044;-66
2021/06/14 07:28:33;;;;;;;9.80;5.50;;;21.80;64.10;;;;;;5097688;28;20032;-66
2021/06/14 07:30:59;;;;;;;9.38;4.70;;;21.80;64.40;;;;;;5094169;28;20080;-66
2021/06/14 07:33:25;;;;;;;8.30;4.78;;;21.90;63.20;;;;;;5090781;28;20051;-66
2021/06/14 07:35:51;;;;;;;9.27;4.60;;;22.00;61.40;;;;;;5098300;28;20220;-66
2021/06/14 07:38:17;;;;;;;9.02;4.70;;;22.00;62.10;;;;;;5093788;27;20038;-66
2021/06/14 07:40:43;;;;;;;8.80;4.13;;;22.20;63.50;;;;;;5098295;28;20088;-66
2021/06/14 07:43:12;;;;;;;10.82;4.40;;;22.20;64.50;;;;;;5093977;28;20044;-66
2021/06/14 07:45:39;;;;;;;7.28;4.18;;;22.40;63.90;;;;;;5098210;28;20105;-66
2021/06/14 07:48:05;;;;;;;9.23;4.53;;;22.50;63.00;;;;;;5099386;28;20114;-66
2021/06/14 07:50:32;;;;;;;9.38;4.78;;;22.60;61.40;;;;;;5095194;28;20478;-66
2021/06/14 07:52:58;;;;;;;13.20;4.00;;;22.60;60.60;;;;;;5096742;28;20035;-66
2021/06/14 07:55:24;;;;;;;7.60;4.07;;;22.70;60.00;;;;;;5099905;28;20138;-66
2021/06/14 07:57:50;;;;;;;9.25;4.00;;;22.80;59.40;;;;;;5098958;28;20469;-66
2021/06/14 08:00:16;;;;;;;6.95;4.13;;;22.80;60.50;;;;;;5090515;28;20085;-66
2021/06/14 08:02:42;;;;;;;8.02;4.03;;;22.90;60.50;;;;;;5095909;28;20071;-66
2021/06/14 08:05:10;;;;;;;6.20;3.40;;;23.10;60.50;;;;;;5093237;28;20063;-66
2021/06/14 08:07:36;;;;;;;7.68;3.75;;;23.20;58.20;;;;;;5108346;28;20071;-66
2021/06/14 08:10:05;;;;;;;5.95;3.20;;;23.30;58.40;;;;;;5091457;28;20079;-66
2021/06/14 08:12:33;;;;;;;8.30;3.72;;;23.40;57.80;;;;;;5102441;28;20475;-66
2021/06/14 08:14:59;;;;;;;9.07;4.00;;;23.50;58.10;;;;;;5089242;28;20475;-66
2021/06/14 08:17:28;;;;;;;8.63;3.50;;;23.60;56.50;;;;;;5095069;28;20050;-66
2021/06/14 08:20:03;;;;;;;7.65;3.47;;;23.70;56.60;;;;;;5091088;28;20075;-66
2021/06/14 08:25:14;;;;;;;10.48;3.53;;;23.80;57.90;;;;;;5092981;28;20038;-66
2021/06/14 08:27:42;;;;;;;10.38;4.05;;;23.80;54.90;;;;;;5107564;28;20031;-66
2021/06/14 08:30:11;;;;;;;10.80;3.45;;;23.90;55.60;;;;;;5095938;28;20036;-66
2021/06/14 08:32:40;;;;;;;6.97;3.60;;;24.00;55.20;;;;;;5097313;28;20463;-66
2021/06/14 08:35:09;;;;;;;7.65;3.92;;;24.10;55.00;;;;;;5087329;28;20111;-66
2021/06/14 08:37:35;;;;;;;8.25;3.55;;;24.20;55.40;;;;;;5095130;28;20371;-66
2021/06/14 08:40:03;;;;;;;9.73;3.30;;;24.40;55.60;;;;;;5102094;28;20027;-67
2021/06/14 08:42:29;;;;;;;7.88;3.60;;;24.40;55.00;;;;;;5100257;28;20140;-67
2021/06/14 08:44:56;;;;;;;7.30;4.00;;;24.60;53.80;;;;;;5094226;28;20056;-66
2021/06/14 08:47:23;;;;;;;6.75;4.25;;;24.70;53.70;;;;;;5092504;28;20407;-66
2021/06/14 08:49:49;;;;;;;11.88;4.30;;;24.70;53.60;;;;;;5103448;28;20031;-66
2021/06/14 08:52:15;;;;;;;9.63;3.92;;;24.90;54.70;;;;;;5094667;28;20056;-66
2021/06/14 08:54:43;;;;;;;9.40;4.43;;;24.90;53.40;;;;;;5099553;28;20093;-66
2021/06/14 08:57:13;;;;;;;7.90;3.47;;;25.10;51.90;;;;;;5095609;28;20150;-66
2021/06/14 08:59:41;;;;;;;9.30;3.72;;;25.20;52.20;;;;;;5099011;28;20127;-70
2021/06/14 09:02:07;;;;;;;12.57;4.35;;;25.40;50.40;;;;;;5090474;28;20044;-71
2021/06/14 09:04:34;;;;;;;11.80;4.13;;;25.50;51.90;;;;;;5105981;28;20081;-72
2021/06/14 09:07:01;;;;;;;12.05;4.20;;;25.60;51.30;;;;;;5092041;28;20175;-72
2021/06/14 09:09:29;;;;;;;16.60;4.40;;;25.70;51.30;;;;;;5099179;28;20057;-73
2021/06/14 09:11:56;;;;;;;11.80;3.70;;;;;;;;;;5088203;28;20071;-67
2021/06/14 09:14:23;;;;;;;10.40;3.45;;;;;;;;;;5101008;28;20494;-68
2021/06/14 09:16:51;;;;;;;9.38;4.60;;;;;;;;;;5091945;28;20149;-66
2021/06/14 09:19:31;;;;;;;35.97;6.97;;;;;;;;;;5100921;28;20043;-70
2021/06/14 09:22:09;;;;;;;12.75;4.20;;;;;;;;;;5091165;28;20061;-67
2021/06/14 09:24:35;;;;;;;8.75;4.10;;;;;;;;;;5096405;28;20032;-66
2021/06/14 09:27:02;;;;;;;9.52;4.18;;;;;;;;;;5088855;28;20038;-67
2021/06/14 09:29:29;;;;;;;14.65;5.80;;;;;;;;;;5095218;28;20047;-68
2021/06/14 09:31:58;;;;;;;7.57;4.18;;;;;;;;;;5099899;28;20475;-66
2021/06/14 09:34:35;;;;;;;6.75;3.80;;;;;;;;;;5093357;28;20411;-66
2021/06/14 09:37:02;;;;;;;9.63;4.45;;;;;;;;;;5096457;28;20097;-66
2021/06/14 09:39:35;;;;;;;8.13;3.60;;;;;;;;;;5097845;28;20040;-66
2021/06/14 09:42:11;;;;;;;8.40;3.90;;;;;;;;;;5107354;28;20415;-67
2021/06/14 09:44:38;;;;;;;8.38;3.83;;;;;;;;;;5089853;28;20044;-72
2021/06/14 09:47:05;;;;;;;9.55;4.43;;;;;;;;;;5101781;28;20039;-73
2021/06/14 09:49:32;;;;;;;8.65;4.70;;;;;;;;;;5100821;28;20107;-72
2021/06/14 09:51:58;;;;;;;7.90;4.10;;;;;;;;;;5100833;28;20042;-72
2021/06/14 09:54:28;;;;;;;6.07;3.60;;;;;;;;;;5104004;28;20057;-72
2021/06/14 09:56:55;;;;;;;8.82;3.58;;;;;;;;;;5110236;28;20066;-72
2021/06/14 09:59:44;;;;;;;9.93;3.90;;;;;;;;;;5099422;28;20032;-71
2021/06/14 10:02:16;;;;;;;6.45;3.67;;;;;;;;;;5097236;28;20101;-72
2021/06/14 10:04:44;;;;;;;9.20;4.13;;;;;;;;;;5094521;28;20125;-73
2021/06/14 10:07:11;;;;;;;8.38;3.28;;;;;;;;;;5101765;28;20403;-73
2021/06/14 10:09:44;;;;;;;10.15;3.50;;;;;;;;;;5096365;28;20145;-73
2021/06/14 10:12:11;;;;;;;;;;;;;;;;;;5109322;28;20036;-72
2021/06/14 10:14:37;;;;;;;7.30;4.03;;;;;;;;;;5092569;28;20006;-73
2021/06/14 10:17:04;;;;;;;9.02;3.22;;;;;;;;;;5100961;28;20040;-72
2021/06/14 10:19:30;;;;;;;8.63;3.88;;;;;;;;;;5096157;27;20047;-67
2021/06/14 10:21:56;;;;;;;6.38;3.72;;;;;;;;;;5103653;28;20499;-67
2021/06/14 10:24:22;;;;;;;10.20;4.25;;;;;;;;;;5093854;28;20495;-68
2021/06/14 10:26:51;;;;;;;7.80;3.42;;;;;;;;;;5099480;28;20040;-70
2021/06/14 10:29:17;;;;;;;10.75;3.90;;;;;;;;;;5097134;28;20639;-65
2021/06/14 10:31:46;;;;;;;8.57;3.40;;;;;;;;;;5107514;28;20487;-66
2021/06/14 10:34:13;;;;;;;9.60;3.60;;;;;;;;;;5109560;28;20494;-68
2021/06/14 10:36:42;;;;;;;7.68;3.92;;;;;;;;;;5094001;28;20051;-70
2021/06/14 10:39:10;;;;;;;9.85;4.18;;;;;;;;;;5102405;28;20040;-69
2021/06/14 10:41:36;;;;;;;6.60;3.22;;;;;;;;;;5096864;28;20062;-69
2021/06/14 10:44:05;;;;;;;6.22;3.67;;;;;;;;;;5094841;28;20040;-68
2021/06/14 10:46:32;;;;;;;6.05;3.88;;;;;;;;;;5097771;28;20061;-68
2021/06/14 10:49:02;;;;;;;7.85;3.70;;;;;;;;;;5102129;28;20039;-67
2021/06/14 10:51:32;;;;;;;7.43;3.55;;;;;;;;;;5098335;28;20042;-67
2021/06/14 10:54:24;;;;;;;7.03;3.25;;;;;;;;;;5101388;28;20044;-68
2021/06/14 10:56:50;;;;;;;7.70;3.45;;;;;;;;;;5089585;28;20048;-68
2021/06/14 10:59:18;;;;;;;7.05;3.20;;;;;;;;;;5098632;28;20036;-67
2021/06/14 11:01:45;;;;;;;6.45;3.53;;;;;;;;;;5095537;28;20040;-67
2021/06/14 11:04:22;;;;;;;6.75;2.80;;;;;;;;;;5105808;28;20032;-67
2021/06/14 11:06:53;;;;;;;7.47;2.97;;;;;;;;;;5097379;28;20044;-67
2021/06/14 11:09:19;;;;;;;5.65;2.92;;;;;;;;;;5097860;28;20035;-67
2021/06/14 11:12:03;;;;;;;7.28;2.78;;;;;;;;;;5098633;28;20051;-67
2021/06/14 11:14:31;;;;;;;5.68;2.50;;;;;;;;;;5098947;28;20051;-67
2021/06/14 11:17:20;;;;;;;6.82;2.80;;;;;;;;;;5091935;28;20470;-67
2021/06/14 11:19:47;;;;;;;6.25;2.65;;;;;;;;;;5084037;28;20089;-67
2021/06/14 11:22:14;;;;;;;6.90;3.25;;;;;;;;;;5091190;28;20399;-66
2021/06/14 11:24:41;;;;;;;6.97;3.17;;;;;;;;;;5103103;28;20027;-68
2021/06/14 11:27:09;;;;;;;9.75;3.33;;;;;;;;;;5095387;28;20064;-68
2021/06/14 11:29:42;;;;;;;7.05;2.78;;;;;;;;;;5101521;28;20557;-66
2021/06/14 11:32:08;;;;;;;7.20;3.03;;;;;;;;;;5093382;28;20090;-67
2021/06/14 11:34:39;;;;;;;8.02;3.13;;;;;;;;;;5100864;28;20417;-66
2021/06/14 11:37:06;;;;;;;8.10;3.55;;;;;;;;;;5097093;28;20522;-68
2021/06/14 11:39:32;;;;;;;8.20;3.40;;;;;;;;;;5107593;28;20051;-65
2021/06/14 11:42:07;;;;;;;7.72;3.50;;;;;;;;;;5106892;28;20142;-66
2021/06/14 11:44:33;;;;;;;5.15;3.55;;;;;;;;;;5087092;28;20059;-67
2021/06/14 11:47:10;;;;;;;6.38;3.35;;;;;;;;;;5099193;28;20047;-67
2021/06/14 11:49:37;;;;;;;5.57;2.90;;;;;;;;;;5096080;28;20048;-66
2021/06/14 11:52:14;;;;;;;5.38;2.83;;;;;;;;;;5101119;28;20040;-66
2021/06/14 11:54:41;;;;;;;6.80;3.42;;;;;;;;;;5099441;28;20043;-64
2021/06/14 11:57:07;;;;;;;9.45;4.45;;;;;;;;;;5105082;28;20048;-65
2021/06/14 11:59:34;;;;;;;9.50;3.60;;;;;;;;;;5093989;28;20051;-65
2021/06/14 12:02:05;;;;;;;7.13;3.95;;;;;;;;;;5094539;28;20032;-65
2021/06/14 12:04:31;;;;;;;12.80;9.15;;;;;;;;;;5091201;28;20457;-65
2021/06/14 12:07:02;;;;;;;8.98;3.28;;;;;;;;;;5091955;28;87112;-64
2021/06/14 12:09:30;;;;;;;6.60;3.20;;;;;;;;;;5091564;28;20054;-64
2021/06/14 12:11:57;;;;;;;8.65;3.50;;;;;;;;;;5094345;28;20040;-65
2021/06/14 12:14:23;;;;;;;7.43;3.15;;;;;;;;;;5099693;28;20034;-65
2021/06/14 12:16:56;;;;;;;6.05;2.83;;;;;;;;;;5097357;28;20511;-63
2021/06/14 12:19:22;;;;;;;7.15;2.95;;;;;;;;;;5092545;28;20437;-64
2021/06/14 12:21:52;;;;;;;9.30;3.40;;;;;;;;;;5094131;28;20047;-65
2021/06/14 12:24:19;;;;;;;7.13;3.13;;;;;;;;;;5096615;28;20040;-65
2021/06/14 12:26:45;;;;;;;7.82;3.05;;;;;;;;;;5096812;28;20044;-65
2021/06/14 12:29:21;;;;;;;5.10;2.80;;;;;;;;;;5098720;28;20052;-64
2021/06/14 12:31:48;;;;;;;5.00;2.80;;;;;;;;;;5101359;28;20040;-64
2021/06/14 12:34:14;;;;;;;4.38;2.50;;;;;;;;;;5098027;28;20035;-65
2021/06/14 12:36:40;;;;;;;6.10;2.65;;;;;;;;;;5103489;28;20502;-66
2021/06/14 12:39:06;;;;;;;6.57;2.50;;;;;;;;;;5107830;27;20433;-67
2021/06/14 12:41:32;;;;;;;6.00;2.53;;;;;;;;;;5093146;28;20054;-66
2021/06/14 12:44:00;;;;;;;6.28;2.70;;;;;;;;;;5102286;28;20103;-65
2021/06/14 12:46:33;;;;;;;80.72;73.03;;;;;;;;;;5096896;28;20399;-65
2021/06/14 12:48:59;;;;;;;6.70;3.35;;;;;;;;;;5099317;28;20043;-65
2021/06/14 12:51:38;;;;;;;6.78;3.05;;;;;;;;;;5094039;28;20051;-65
2021/06/14 12:54:05;;;;;;;6.35;3.30;;;;;;;;;;5099080;28;20107;-65
2021/06/14 12:56:31;;;;;;;9.23;3.50;;;;;;;;;;5096815;27;20079;-65
2021/06/14 12:58:57;;;;;;;7.97;3.17;;;;;;;;;;5098529;28;20529;-70
2021/06/14 13:01:23;;;;;;;5.40;3.10;;;;;;;;;;5092845;28;20043;-70
2021/06/14 13:03:50;;;;;;;17.77;4.20;;;;;;;;;;5097071;28;20058;-70
2021/06/14 13:06:16;;;;;;;7.82;3.80;;;;;;;;;;5092898;28;20068;-71
2021/06/14 13:08:44;;;;;;;7.00;3.65;;;;;;;;;;5103497;28;20043;-71
2021/06/14 13:11:11;;;;;;;8.40;6.10;;;;;;;;;;5097816;28;20038;-70
2021/06/14 13:13:42;;;;;;;6.03;3.65;;;;;;;;;;5104099;28;20040;-71
2021/06/14 13:16:09;;;;;;;8.43;4.38;;;;;;;;;;5080486;28;20203;-72
2021/06/14 13:18:36;;;;;;;5.97;3.25;;;;;;;;;;5097785;28;20062;-69
2021/06/14 13:21:05;;;;;;;7.25;3.30;;;;;;;;;;5100858;28;20024;-69